Time;durP1;ratioP1;P1;durP2;ratioP2;P2;SDS_P1;SDS_P2;PMS_P1;PMS_P2;Temp;Humidity;BMP_temperature;BMP_pressure;BME280_temperature;BME280_humidity;BME280_pressure;Samples;Min_cycle;Max_cycle;Signal;HPM_P1;HPM_P2
2023/01/11 00:01:03;;;;;;;14.20;10.20;;;;;;;;;;5069645;28;20539;-66
2023/01/11 00:03:30;;;;;;;16.33;11.00;;;;;;;;;;5051304;28;20051;-66
2023/01/11 00:05:56;;;;;;;15.73;11.17;;;;;;;;;;5067881;28;20055;-66
2023/01/11 00:08:26;;;;;;;14.20;11.10;;;;;;;;;;5068223;28;20090;-65
2023/01/11 00:10:52;;;;;;;17.40;12.80;;;;;;;;;;5069563;28;20499;-66
2023/01/11 00:13:19;;;;;;;16.57;11.60;;;;;;;;;;5069316;28;20491;-66
2023/01/11 00:15:45;;;;;;;14.53;10.73;;;;;;;;;;5069334;28;20593;-66
2023/01/11 00:18:11;;;;;;;18.30;10.70;;;;;;;;;;5069476;28;20083;-66
2023/01/11 00:20:40;;;;;;;17.73;12.07;;;;;;;;;;5068202;28;20498;-66
2023/01/11 00:23:06;;;;;;;19.67;12.47;;;;;;;;;;5068095;28;20045;-66
2023/01/11 00:25:32;;;;;;;18.63;10.73;;;;;;;;;;5069239;28;20044;-66
2023/01/11 00:27:58;;;;;;;17.03;12.40;;;;;;;;;;5069429;28;20094;-66
2023/01/11 00:30:24;;;;;;;15.80;11.63;;;;;;;;;;5068756;28;20052;-66
2023/01/11 00:32:55;;;;;;;18.20;12.33;;;;;;;;;;5051157;28;20144;-66
2023/01/11 00:35:21;;;;;;;20.20;12.63;;;;;;;;;;5067849;28;20053;-66
2023/01/11 00:37:47;;;;;;;18.40;11.07;;;;;;;;;;5068701;28;20040;-65
2023/01/11 00:40:13;;;;;;;15.13;11.70;;;;;;;;;;5068829;28;20052;-67
2023/01/11 00:48:09;;;;;;;16.57;11.40;;;;;;;;;;5047608;28;20502;-66
2023/01/11 00:50:39;;;;;;;15.90;10.77;;;;;;;;;;5048546;28;20072;-65
2023/01/11 00:53:06;;;;;;;14.30;10.63;;;;;;;;;;5048431;28;20472;-66
2023/01/11 00:55:32;;;;;;;16.10;10.47;;;;;;;;;;5048293;28;20049;-66
2023/01/11 00:57:58;;;;;;;18.03;11.20;;;;;;;;;;5047470;28;20085;-66
2023/01/11 01:00:24;;;;;;;13.33;10.17;;;;;;;;;;5047157;28;20671;-66
2023/01/11 01:02:50;;;;;;;15.17;11.03;;;;;;;;;;5048772;28;20051;-65
2023/01/11 01:05:17;;;;;;;14.27;10.80;;;;;;;;;;5048629;28;20045;-65
2023/01/11 01:07:43;;;;;;;12.80;10.07;;;;;;;;;;5048515;28;20067;-66
2023/01/11 01:10:10;;;;;;;12.37;9.77;;;;;;;;;;5048097;28;20132;-66
2023/01/11 01:15:21;;;;;;;14.17;10.60;;;;;;;;;;5049131;28;20049;-66
2023/01/11 01:17:48;;;;;;;17.53;11.03;;;;;;;;;;5055188;28;20140;-66
2023/01/11 01:20:14;;;;;;;16.33;10.67;;;;;;;;;;5055546;28;20041;-66
2023/01/11 01:22:41;;;;;;;13.30;10.37;;;;;;;;;;5053835;28;20041;-66
2023/01/11 01:25:07;;;;;;;18.27;11.60;;;;;;;;;;5054053;28;20049;-66
2023/01/11 01:27:33;;;;;;;16.37;10.80;;;;;;;;;;5055311;28;20072;-66
2023/01/11 01:29:59;;;;;;;14.63;10.87;;;;;;;;;;5054660;28;20052;-65
2023/01/11 01:32:25;;;;;;;16.80;10.90;;;;;;;;;;5053699;28;20049;-66
2023/01/11 01:34:51;;;;;;;17.47;10.80;;;;;;;;;;5054923;28;20115;-66
2023/01/11 01:37:17;;;;;;;15.47;11.03;;;;;;;;;;5063313;28;20063;-66
2023/01/11 01:39:43;;;;;;;21.23;12.13;;;;;;;;;;5073444;28;20040;-66
2023/01/11 01:42:14;;;;;;;16.97;10.67;;;;;;;;;;5056912;28;20143;-66
2023/01/11 01:44:53;;;;;;;16.57;10.97;;;;;;;;;;5074662;28;20109;-66
2023/01/11 01:47:22;;;;;;;20.43;11.93;;;;;;;;;;5074933;28;20059;-66
2023/01/11 01:49:48;;;;;;;15.70;11.07;;;;;;;;;;5065212;28;20045;-66
2023/01/11 01:52:14;;;;;;;18.10;12.03;;;;;;;;;;5054646;28;20518;-66
2023/01/11 01:54:43;;;;;;;20.80;12.67;;;;;;;;;;5036925;28;20063;-66
2023/01/11 01:57:13;;;;;;;19.20;11.50;;;;;;;;;;5054740;28;20052;-66
2023/01/11 01:59:40;;;;;;;13.73;10.13;;;;;;;;;;5054778;28;20746;-67
2023/01/11 02:02:06;;;;;;;14.50;10.33;;;;;;;;;;5054788;28;20052;-66
2023/01/11 02:04:37;;;;;;;18.67;11.77;;;;;;;;;;5054452;28;20052;-67
2023/01/11 02:07:09;;;;;;;22.80;10.27;;;;;;;;;;5054978;28;20040;-67
2023/01/11 02:09:35;;;;;;;18.90;12.03;;;;;;;;;;5053651;28;20045;-66
2023/01/11 02:12:02;;;;;;;21.27;10.30;;;;;;;;;;5054904;28;20101;-66
2023/01/11 02:14:28;;;;;;;16.77;10.17;;;;;;;;;;5054825;28;20076;-66
2023/01/11 02:16:55;;;;;;;15.80;10.50;;;;;;;;;;5053835;28;20049;-67
2023/01/11 02:19:30;;;;;;;16.67;10.07;;;;;;;;;;5053559;28;20048;-67
2023/01/11 02:21:56;;;;;;;16.57;10.40;;;;;;;;;;5054913;28;20135;-67
2023/01/11 02:24:48;;;;;;;13.70;9.60;;;;;;;;;;5054548;28;20128;-67
2023/01/11 02:27:34;;;;;;;16.00;10.00;;;;;;;;;;5053217;28;20481;-66
2023/01/11 02:30:19;;;;;;;12.97;8.97;;;;;;;;;;5050930;28;20056;-66
2023/01/11 02:32:54;;;;;;;14.33;8.87;;;;;;;;;;5050385;28;20049;-66
2023/01/11 02:35:20;;;;;;;13.00;8.53;;;;;;;;;;5051142;28;20059;-66
2023/01/11 02:37:53;;;;;;;14.27;9.40;;;;;;;;;;5049727;28;20060;-67
2023/01/11 02:40:29;;;;;;;15.32;7.93;;;;;;;;;;5049907;28;20587;-66
2023/01/11 02:45:46;;;;;;;10.30;7.30;;;;;;;;;;5051076;28;20065;-66
2023/01/11 02:48:32;;;;;;;9.87;6.70;;;;;;;;;;5051046;28;20061;-67
2023/01/11 02:50:58;;;;;;;12.97;8.20;;;;;;;;;;5050745;28;20052;-66
2023/01/11 02:53:30;;;;;;;12.67;6.77;;;;;;;;;;5050597;28;20423;-66
2023/01/11 02:55:58;;;;;;;10.63;7.23;;;;;;;;;;5051132;28;20107;-66
2023/01/11 02:58:26;;;;;;;13.97;8.00;;;;;;;;;;5066237;28;20051;-66
2023/01/11 03:00:54;;;;;;;10.53;7.10;;;;;;;;;;5069939;28;20398;-66
2023/01/11 03:03:23;;;;;;;12.63;7.90;;;;;;;;;;5071022;28;20055;-66
2023/01/11 03:06:10;;;;;;;9.20;6.63;;;;;;;;;;5064637;28;20056;-66
2023/01/11 03:08:43;;;;;;;9.87;6.70;;;;;;;;;;5042309;28;20055;-67
2023/01/11 03:14:42;;;;;;;11.88;7.60;;;;;;;;;;5048440;28;20045;-67
2023/01/11 03:17:20;;;;;;;12.13;7.30;;;;;;;;;;5032834;28;20112;-66
2023/01/11 03:19:51;;;;;;;8.87;5.80;;;;;;;;;;5050027;28;20040;-66
2023/01/11 03:22:23;;;;;;;10.90;6.33;;;;;;;;;;5049401;28;20045;-66
2023/01/11 03:24:57;;;;;;;10.27;5.63;;;;;;;;;;5050416;28;20102;-66
2023/01/11 03:27:26;;;;;;;8.33;5.33;;;;;;;;;;5050484;28;20107;-67
2023/01/11 03:29:57;;;;;;;11.27;5.63;;;;;;;;;;5048898;28;20060;-66
2023/01/11 03:32:23;;;;;;;8.70;5.53;;;;;;;;;;5066622;28;20055;-66
2023/01/11 03:35:10;;;;;;;9.77;5.40;;;;;;;;;;5070102;28;20053;-67
2023/01/11 03:37:45;;;;;;;7.90;5.13;;;;;;;;;;5067770;28;20059;-67
2023/01/11 03:40:11;;;;;;;6.77;4.57;;;;;;;;;;5049630;28;20067;-67
2023/01/11 03:43:09;;;;;;;5.97;3.93;;;;;;;;;;5050106;28;20045;-67
2023/01/11 03:45:26;;;;;;;6.77;4.27;;;;;;;;;;5049423;28;20057;-68
2023/01/11 03:47:53;;;;;;;6.87;3.90;;;;;;;;;;5048718;28;20063;-67
2023/01/11 03:50:19;;;;;;;5.13;3.83;;;;;;;;;;5048342;28;20507;-67
2023/01/11 03:52:45;;;;;;;6.00;3.77;;;;;;;;;;5049595;28;20124;-66
2023/01/11 03:55:12;;;;;;;5.43;3.60;;;;;;;;;;5049869;28;20163;-66
2023/01/11 03:57:40;;;;;;;6.03;4.00;;;;;;;;;;5049592;28;20119;-67
2023/01/11 04:00:07;;;;;;;5.70;3.73;;;;;;;;;;5038600;28;20052;-66
2023/01/11 04:02:34;;;;;;;4.60;3.23;;;;;;;;;;5049746;28;20045;-66
2023/01/11 04:05:01;;;;;;;5.53;3.47;;;;;;;;;;5049848;28;20068;-67
2023/01/11 04:07:27;;;;;;;6.63;3.70;;;;;;;;;;5048120;28;20087;-67
2023/01/11 04:09:53;;;;;;;5.43;3.50;;;;;;;;;;5056251;28;20071;-67
2023/01/11 04:12:19;;;;;;;6.03;3.33;;;;;;;;;;5069542;28;20512;-66
2023/01/11 04:14:45;;;;;;;7.10;3.67;;;;;;;;;;5068270;28;20040;-67
2023/01/11 04:17:11;;;;;;;7.10;3.90;;;;;;;;;;5068192;28;20093;-66
2023/01/11 04:19:37;;;;;;;6.23;3.53;;;;;;;;;;5068183;28;20055;-66
2023/01/11 04:22:03;;;;;;;5.50;3.47;;;;;;;;;;5069477;28;20048;-66
2023/01/11 04:24:29;;;;;;;5.77;2.97;;;;;;;;;;5068006;28;20418;-66
2023/01/11 04:26:55;;;;;;;5.57;3.53;;;;;;;;;;5069237;28;20048;-66
2023/01/11 04:29:21;;;;;;;6.43;3.30;;;;;;;;;;5066057;28;20040;-66
2023/01/11 04:31:47;;;;;;;7.40;3.87;;;;;;;;;;5047439;28;20083;-66
2023/01/11 04:34:13;;;;;;;8.43;4.17;;;;;;;;;;5048148;28;20049;-67
2023/01/11 04:36:39;;;;;;;8.30;4.47;;;;;;;;;;5047757;28;20514;-66
2023/01/11 04:39:05;;;;;;;10.10;5.63;;;;;;;;;;5049183;28;20045;-66
2023/01/11 04:44:16;;;;;;;14.60;7.20;;;;;;;;;;5048522;28;20049;-66
2023/01/11 04:46:42;;;;;;;18.40;8.23;;;;;;;;;;5049325;28;20064;-66
2023/01/11 04:49:08;;;;;;;13.23;7.10;;;;;;;;;;5056449;28;20135;-66
2023/01/11 04:51:34;;;;;;;18.00;8.37;;;;;;;;;;5048040;28;20097;-66
2023/01/11 04:54:00;;;;;;;18.47;8.03;;;;;;;;;;5048795;28;20049;-66
2023/01/11 04:56:28;;;;;;;14.03;7.87;;;;;;;;;;5050083;28;20802;-66
2023/01/11 04:58:54;;;;;;;15.23;7.57;;;;;;;;;;5068307;28;20556;-66
2023/01/11 05:01:20;;;;;;;17.53;8.30;;;;;;;;;;5067635;28;20178;-66
2023/01/11 05:03:48;;;;;;;15.83;7.97;;;;;;;;;;5067552;28;20060;-66
2023/01/11 05:06:14;;;;;;;17.77;7.93;;;;;;;;;;5068615;28;20536;-65
2023/01/11 05:08:44;;;;;;;16.30;8.23;;;;;;;;;;5066765;28;20050;-67
2023/01/11 05:11:10;;;;;;;26.83;8.67;;;;;;;;;;5066911;28;20076;-66
2023/01/11 05:13:42;;;;;;;20.17;9.33;;;;;;;;;;5048570;28;20045;-67
2023/01/11 05:16:09;;;;;;;24.33;8.83;;;;;;;;;;5048544;28;20132;-67
2023/01/11 05:18:35;;;;;;;18.67;7.30;;;;;;;;;;5048577;28;20049;-66
2023/01/11 05:21:03;;;;;;;17.27;7.57;;;;;;;;;;5062524;28;20086;-67
2023/01/11 05:23:29;;;;;;;21.37;7.93;;;;;;;;;;5068062;28;20063;-66
2023/01/11 05:25:55;;;;;;;22.30;6.83;;;;;;;;;;5068563;28;20048;-66
2023/01/11 05:28:21;;;;;;;20.40;5.87;;;;;;;;;;5068400;28;20044;-67
2023/01/11 05:30:51;;;;;;;27.47;5.43;;;;;;;;;;5054780;28;20490;-67
2023/01/11 05:33:17;;;;;;;16.90;4.43;;;;;;;;;;5048384;28;20051;-66
2023/01/11 05:35:43;;;;;;;26.30;4.77;;;;;;;;;;5046432;28;20097;-66
2023/01/11 05:38:09;;;;;;;21.93;4.47;;;;;;;;;;5048328;28;20057;-66
2023/01/11 05:40:35;;;;;;;30.30;4.83;;;;;;;;;;5058510;28;20037;-66
2023/01/11 05:43:01;;;;;;;23.53;5.00;;;;;;;;;;5068281;28;20173;-67
2023/01/11 05:45:31;;;;;;;29.97;5.17;;;;;;;;;;5066599;28;20059;-66
2023/01/11 05:47:58;;;;;;;27.43;4.17;;;;;;;;;;5066844;28;20053;-66
2023/01/11 05:50:24;;;;;;;27.73;5.10;;;;;;;;;;5067347;28;20059;-66
2023/01/11 05:52:50;;;;;;;30.87;5.50;;;;;;;;;;5068160;28;20048;-66
2023/01/11 05:55:16;;;;;;;26.27;4.60;;;;;;;;;;5067767;28;20041;-66
2023/01/11 05:57:45;;;;;;;33.10;5.37;;;;;;;;;;5066765;28;20497;-66
2023/01/11 06:00:12;;;;;;;23.40;4.00;;;;;;;;;;5065640;28;20098;-66
2023/01/11 06:02:38;;;;;;;25.37;4.23;;;;;;;;;;5065986;28;20052;-66
2023/01/11 06:05:05;;;;;;;28.57;4.67;;;;;;;;;;5069890;28;20040;-66
2023/01/11 06:07:31;;;;;;;26.17;4.43;;;;;;;;;;5069978;28;20044;-66
2023/01/11 06:09:57;;;;;;;34.63;5.03;;;;;;;;;;5069017;28;20044;-66
2023/01/11 06:12:23;;;;;;;37.67;6.13;;;;;;;;;;5055054;28;20045;-66
2023/01/11 06:14:49;;;;;;;36.67;5.17;;;;;;;;;;5049914;28;20407;-66
2023/01/11 06:17:15;;;;;;;31.60;4.90;;;;;;;;;;5050932;28;20045;-66
2023/01/11 06:19:41;;;;;;;32.30;5.97;;;;;;;;;;5066862;28;20407;-66
2023/01/11 06:22:07;;;;;;;32.47;4.67;;;;;;;;;;5053440;28;20136;-66
2023/01/11 06:24:33;;;;;;;29.77;5.67;;;;;;;;;;5071402;28;20054;-65
2023/01/11 06:26:59;;;;;;;34.67;5.70;;;;;;;;;;5057484;28;20506;-66
2023/01/11 06:29:25;;;;;;;30.23;5.37;;;;;;;;;;5052458;28;20040;-67
2023/01/11 06:31:51;;;;;;;38.73;5.53;;;;;;;;;;5050720;28;20386;-66
2023/01/11 06:34:17;;;;;;;36.90;6.73;;;;;;;;;;5050021;28;20047;-66
2023/01/11 06:36:45;;;;;;;35.93;6.00;;;;;;;;;;5055767;28;20053;-66
2023/01/11 06:39:11;;;;;;;25.13;5.93;;;;;;;;;;5051714;28;20624;-66
2023/01/11 06:41:37;;;;;;;36.23;5.67;;;;;;;;;;5050378;28;20075;-65
2023/01/11 06:44:03;;;;;;;37.20;5.93;;;;;;;;;;5054198;28;20075;-66
2023/01/11 06:46:29;;;;;;;27.00;5.40;;;;;;;;;;5055328;28;20057;-66
2023/01/11 06:48:55;;;;;;;32.83;6.43;;;;;;;;;;5050770;28;20048;-65
2023/01/11 06:51:21;;;;;;;41.37;6.43;;;;;;;;;;5049867;28;20045;-66
2023/01/11 06:53:47;;;;;;;37.87;6.53;;;;;;;;;;5050682;28;20416;-66
2023/01/11 06:56:15;;;;;;;37.20;5.73;;;;;;;;;;5050259;28;20056;-66
2023/01/11 06:58:41;;;;;;;35.67;6.70;;;;;;;;;;5050017;28;20491;-66
2023/01/11 07:01:07;;;;;;;31.70;5.80;;;;;;;;;;5049934;28;20055;-66
2023/01/11 07:03:33;;;;;;;35.43;7.10;;;;;;;;;;5050267;28;20041;-66
2023/01/11 07:05:59;;;;;;;41.43;7.83;;;;;;;;;;5050266;28;20454;-66
2023/01/11 07:08:25;;;;;;;32.90;5.60;;;;;;;;;;5052290;28;20076;-67
2023/01/11 07:10:52;;;;;;;75.00;11.63;;;;;;;;;;5049735;28;20103;-65
2023/01/11 07:13:18;;;;;;;38.40;7.17;;;;;;;;;;5049489;28;20077;-66
2023/01/11 07:15:45;;;;;;;41.10;7.43;;;;;;;;;;5032127;28;20131;-66
2023/01/11 07:18:11;;;;;;;54.90;8.33;;;;;;;;;;5049977;28;20045;-65
2023/01/11 07:20:37;;;;;;;37.27;6.20;;;;;;;;;;5050244;28;20056;-66
2023/01/11 07:23:03;;;;;;;30.47;6.00;;;;;;;;;;5049439;28;20044;-65
2023/01/11 07:25:30;;;;;;;38.47;6.10;;;;;;;;;;5049991;28;20095;-66
2023/01/11 07:27:57;;;;;;;30.40;7.23;;;;;;;;;;5049324;28;20045;-66
2023/01/11 07:30:23;;;;;;;40.17;6.30;;;;;;;;;;5065579;28;20051;-66
2023/01/11 07:32:49;;;;;;;39.37;6.03;;;;;;;;;;5069778;28;20102;-66
2023/01/11 07:35:15;;;;;;;27.50;5.63;;;;;;;;;;5069174;28;20053;-66
2023/01/11 07:37:41;;;;;;;41.60;6.63;;;;;;;;;;5069631;28;20101;-66
2023/01/11 07:40:08;;;;;;;30.23;4.67;;;;;;;;;;5058802;28;20525;-66
2023/01/11 07:45:19;;;;;;;33.77;5.50;;;;;;;;;;5069274;28;20056;-66
2023/01/11 07:47:45;;;;;;;29.70;5.10;;;;;;;;;;5052336;28;20474;-66
2023/01/11 07:50:11;;;;;;;31.10;5.43;;;;;;;;;;5059459;28;20045;-66
2023/01/11 07:52:37;;;;;;;28.30;4.97;;;;;;;;;;5066730;28;20033;-65
2023/01/11 07:55:03;;;;;;;18.50;4.47;;;;;;;;;;5060770;28;20053;-66
2023/01/11 07:57:29;;;;;;;23.60;3.70;;;;;;;;;;5050585;28;20056;-66
2023/01/11 07:59:55;;;;;;;25.83;3.93;;;;;;;;;;5069434;28;20062;-66
2023/01/11 08:02:21;;;;;;;25.33;4.33;;;;;;;;;;5069185;28;20083;-65
2023/01/11 08:04:47;;;;;;;22.00;4.37;;;;;;;;;;5068668;28;20493;-65
2023/01/11 08:07:13;;;;;;;26.83;3.77;;;;;;;;;;5063056;28;20040;-66
2023/01/11 08:09:39;;;;;;;21.87;3.97;;;;;;;;;;5049357;28;20041;-65
2023/01/11 08:14:51;;;;;;;38.87;5.40;;;;;;;;;;5063311;28;20044;-66
2023/01/11 08:17:17;;;;;;;20.57;5.20;;;;;;;;;;5065687;28;20049;-66
2023/01/11 08:19:43;;;;;;;27.23;5.23;;;;;;;;;;5067987;28;20049;-65
2023/01/11 08:22:09;;;;;;;15.40;4.03;;;;;;;;;;5065336;28;20091;-65
2023/01/11 08:24:35;;;;;;;22.73;3.93;;;;;;;;;;5068127;28;20036;-66
2023/01/11 08:27:02;;;;;;;30.70;5.53;;;;;;;;;;5067868;28;20569;-65
2023/01/11 08:29:28;;;;;;;26.50;4.37;;;;;;;;;;5068179;28;20067;-66
2023/01/11 08:31:54;;;;;;;36.80;5.53;;;;;;;;;;5067677;28;20067;-65
2023/01/11 08:34:20;;;;;;;26.60;4.83;;;;;;;;;;5065416;28;20095;-66
2023/01/11 08:36:46;;;;;;;29.20;4.47;;;;;;;;;;5066691;28;20059;-66
2023/01/11 08:39:12;;;;;;;24.27;4.93;;;;;;;;;;5068234;28;20438;-65
2023/01/11 08:41:38;;;;;;;25.67;4.47;;;;;;;;;;5067278;28;20052;-66
2023/01/11 08:44:05;;;;;;;25.57;5.60;;;;;;;;;;5057647;28;20120;-66
2023/01/11 08:46:32;;;;;;;30.57;5.13;;;;;;;;;;5053896;28;20060;-65
2023/01/11 08:48:59;;;;;;;28.23;4.27;;;;;;;;;;5066826;28;20057;-66
2023/01/11 08:51:25;;;;;;;37.47;5.33;;;;;;;;;;5067540;28;20481;-66
2023/01/11 08:53:52;;;;;;;28.23;4.33;;;;;;;;;;5064353;28;20131;-65
2023/01/11 08:56:18;;;;;;;26.80;5.07;;;;;;;;;;5064516;28;20032;-66
2023/01/11 08:58:44;;;;;;;26.03;4.73;;;;;;;;;;5067223;28;20051;-65
2023/01/11 09:01:11;;;;;;;26.70;4.77;;;;;;;;;;5055580;28;20548;-65
2023/01/11 09:03:37;;;;;;;25.90;4.70;;;;;;;;;;5055443;28;20056;-65
2023/01/11 09:06:03;;;;;;;24.13;4.37;;;;;;;;;;5064736;28;20445;-65
2023/01/11 09:08:29;;;;;;;24.50;4.33;;;;;;;;;;5064220;28;20044;-65
2023/01/11 09:10:58;;;;;;;30.80;4.50;;;;;;;;;;5056566;28;20040;-65
2023/01/11 09:13:24;;;;;;;26.00;5.20;;;;;;;;;;5067033;28;20511;-65
2023/01/11 09:15:54;;;;;;;23.73;4.23;;;;;;;;;;5066004;28;20087;-65
2023/01/11 09:18:22;;;;;;;23.70;3.73;;;;;;;;;;5067347;28;20052;-65
2023/01/11 09:20:50;;;;;;;23.60;3.57;;;;;;;;;;5066177;28;20132;-65
2023/01/11 09:23:16;;;;;;;21.07;5.20;;;;;;;;;;5065093;28;20048;-66
2023/01/11 09:25:42;;;;;;;28.13;5.53;;;;;;;;;;5065711;28;20394;-65
2023/01/11 09:28:08;;;;;;;24.10;4.77;;;;;;;;;;5065425;28;21084;-65
2023/01/11 09:30:37;;;;;;;27.83;4.27;;;;;;;;;;5066528;28;20380;-65
2023/01/11 09:33:05;;;;;;;19.27;4.23;;;;;;;;;;5066915;28;20047;-66
2023/01/11 09:35:31;;;;;;;23.40;4.10;;;;;;;;;;5064237;28;20087;-66
2023/01/11 09:37:58;;;;;;;22.80;3.40;;;;;;;;;;5069739;28;20103;-65
2023/01/11 09:40:33;;;;;;;23.50;5.17;;;;;;;;;;5070860;28;20511;-65
2023/01/11 09:43:02;;;;;;;32.90;5.97;;;;;;;;;;5062808;28;20049;-65
2023/01/11 09:45:30;;;;;;;26.70;6.37;;;;;;;;;;5065429;28;20117;-65
2023/01/11 09:48:16;;;;;;;35.17;5.00;;;;;;;;;;5058697;28;20481;-65
2023/01/11 09:50:44;;;;;;;28.03;4.73;;;;;;;;;;5069778;28;20049;-65
2023/01/11 09:53:33;;;;;;;28.97;4.67;;;;;;;;;;5053653;28;20045;-65
2023/01/11 09:56:02;;;;;;;30.20;5.30;;;;;;;;;;5067300;28;20075;-65
2023/01/11 09:58:49;;;;;;;25.10;4.90;;;;;;;;;;5070109;28;20044;-65
2023/01/11 10:01:18;;;;;;;21.10;4.20;;;;;;;;;;5065828;28;20049;-65
2023/01/11 10:03:58;;;;;;;31.77;4.80;;;;;;;;;;5063080;28;20099;-65
2023/01/11 10:06:43;;;;;;;25.47;4.43;;;;;;;;;;5069304;28;20053;-65
2023/01/11 10:09:16;;;;;;;22.90;4.60;;;;;;;;;;5071283;28;20082;-65
2023/01/11 10:12:03;;;;;;;30.58;4.57;;;;;;;;;;5061112;28;20102;-65
2023/01/11 10:14:38;;;;;;;27.40;4.87;;;;;;;;;;5057228;28;20140;-65
2023/01/11 10:17:12;;;;;;;27.03;5.80;;;;;;;;;;5068810;28;20055;-65
2023/01/11 10:19:47;;;;;;;27.97;5.20;;;;;;;;;;5063939;28;20590;-65
2023/01/11 10:22:18;;;;;;;20.37;4.40;;;;;;;;;;5061792;28;20053;-66
2023/01/11 10:24:48;;;;;;;25.23;4.47;;;;;;;;;;5064068;28;20051;-65
2023/01/11 10:27:28;;;;;;;29.47;4.87;;;;;;;;;;5060182;28;20592;-65
2023/01/11 10:30:22;;;;;;;23.70;5.47;;;;;;;;;;5068451;28;20044;-65
2023/01/11 10:35:32;;;;;;;26.97;5.97;;;;;;;;;;5070584;28;20052;-65
2023/01/11 10:38:12;;;;;;;;;;;;;;;;;;5068953;28;20052;-65
2023/01/11 10:41:01;;;;;;;27.57;4.50;;;;;;;;;;5068827;28;19920;-65
2023/01/11 10:43:28;;;;;;;23.33;4.00;;;;;;;;;;5068073;28;20566;-64
2023/01/11 10:46:05;;;;;;;24.47;4.17;;;;;;;;;;5063167;28;20060;-66
2023/01/11 10:48:34;;;;;;;24.83;5.00;;;;;;;;;;5069042;28;20049;-65
2023/01/11 10:51:00;;;;;;;21.93;4.23;;;;;;;;;;5068558;28;20055;-65
2023/01/11 10:53:34;;;;;;;26.73;6.03;;;;;;;;;;5068120;28;20079;-65
2023/01/11 10:56:12;;;;;;;20.20;3.20;;;;;;;;;;5069612;28;20040;-65
2023/01/11 10:58:41;;;;;;;22.10;4.10;;;;;;;;;;5069450;28;20087;-65
2023/01/11 11:01:17;;;;;;;20.70;4.33;;;;;;;;;;5070337;28;20048;-64
2023/01/11 11:03:44;;;;;;;36.50;5.83;;;;;;;;;;5068265;28;20044;-65
2023/01/11 11:06:29;;;;;;;23.40;5.23;;;;;;;;;;5070141;28;20060;-65
2023/01/11 11:09:01;;;;;;;24.80;4.83;;;;;;;;;;5069947;28;20052;-64
2023/01/11 11:12:06;;;;;;;23.13;3.60;;;;;;;;;;5069526;28;20043;-64
2023/01/11 11:14:35;;;;;;;25.33;4.97;;;;;;;;;;5022442;28;20364;-64
2023/01/11 11:17:01;;;;;;;20.27;4.20;;;;;;;;;;5025851;28;20049;-64
2023/01/11 11:19:31;;;;;;;21.07;4.23;;;;;;;;;;5047667;28;20049;-64
2023/01/11 11:21:58;;;;;;;31.23;5.30;;;;;;;;;;5060482;28;20049;-65
2023/01/11 11:24:37;;;;;;;19.27;4.33;;;;;;;;;;5076913;28;20510;-64
2023/01/11 11:27:18;;;;;;;24.90;4.73;;;;;;;;;;5068741;28;20543;-64
2023/01/11 11:29:48;;;;;;;25.93;4.60;;;;;;;;;;5068517;28;20037;-64
2023/01/11 11:32:18;;;;;;;18.30;3.70;;;;;;;;;;5069142;28;20048;-64
2023/01/11 11:34:50;;;;;;;20.13;3.40;;;;;;;;;;5057808;28;20498;-64
2023/01/11 11:37:21;;;;;;;20.43;3.97;;;;;;;;;;5051180;28;20045;-64
2023/01/11 11:39:48;;;;;;;22.70;4.17;;;;;;;;;;5068016;28;20056;-64
2023/01/11 11:42:15;;;;;;;22.67;3.30;;;;;;;;;;5069637;28;20044;-64
2023/01/11 11:44:41;;;;;;;31.07;4.60;;;;;;;;;;5068719;28;20079;-64
2023/01/11 11:47:15;;;;;;;30.73;4.13;;;;;;;;;;5055157;28;20088;-64
2023/01/11 11:49:42;;;;;;;23.85;5.20;;;;;;;;;;5056605;28;20048;-64
2023/01/11 11:52:13;;;;;;;36.93;6.00;;;;;;;;;;5068886;28;20067;-63
2023/01/11 11:54:42;;;;;;;27.27;5.20;;;;;;;;;;5064650;28;20349;-64
2023/01/11 11:57:16;;;;;;;21.43;3.97;;;;;;;;;;5060799;28;20056;-63
2023/01/11 11:59:47;;;;;;;19.47;4.47;;;;;;;;;;5059839;28;20045;-64
2023/01/11 12:02:22;;;;;;;23.97;4.63;;;;;;;;;;5066125;28;20398;-64
2023/01/11 12:04:49;;;;;;;21.20;4.63;;;;;;;;;;5068279;28;20040;-64
2023/01/11 12:07:17;;;;;;;22.67;5.53;;;;;;;;;;5068918;28;20084;-63
2023/01/11 12:09:46;;;;;;;23.97;5.07;;;;;;;;;;5067634;28;20052;-64
2023/01/11 12:12:16;;;;;;;23.87;5.03;;;;;;;;;;5058764;28;20072;-64
2023/01/11 12:14:42;;;;;;;24.17;4.70;;;;;;;;;;5053128;28;20045;-64
2023/01/11 12:17:24;;;;;;;21.60;4.17;;;;;;;;;;5066856;28;20044;-63
2023/01/11 12:19:50;;;;;;;19.73;4.07;;;;;;;;;;5065141;28;20099;-64
2023/01/11 12:22:27;;;;;;;21.80;5.03;;;;;;;;;;5063643;28;20124;-64
2023/01/11 12:25:12;;;;;;;22.43;3.73;;;;;;;;;;5068036;28;20052;-63
2023/01/11 12:27:42;;;;;;;24.50;4.40;;;;;;;;;;5062055;28;20045;-63
2023/01/11 12:30:21;;;;;;;16.47;3.43;;;;;;;;;;5069212;28;20045;-64
2023/01/11 12:33:10;;;;;;;17.33;4.67;;;;;;;;;;5067302;28;20051;-63
2023/01/11 12:35:56;;;;;;;23.00;4.00;;;;;;;;;;5047475;28;20054;-64
2023/01/11 12:38:41;;;;;;;19.73;3.87;;;;;;;;;;5067697;28;20049;-63
2023/01/11 12:41:19;;;;;;;17.77;3.93;;;;;;;;;;5062352;28;20417;-63
2023/01/11 12:43:48;;;;;;;21.20;4.77;;;;;;;;;;5065931;28;20045;-64
2023/01/11 12:46:26;;;;;;;22.40;4.30;;;;;;;;;;5047628;28;20064;-63
2023/01/11 12:49:01;;;;;;;27.17;4.93;;;;;;;;;;5068811;28;20052;-63
2023/01/11 12:51:46;;;;;;;25.53;4.30;;;;;;;;;;5067684;28;20411;-63
2023/01/11 12:54:16;;;;;;;21.70;4.17;;;;;;;;;;5062917;28;20485;-63
2023/01/11 12:56:48;;;;;;;19.00;4.10;;;;;;;;;;5064383;28;20060;-63
2023/01/11 12:59:21;;;;;;;19.03;4.00;;;;;;;;;;5052752;28;20063;-63
2023/01/11 13:01:57;;;;;;;27.40;4.30;;;;;;;;;;5057462;28;20182;-63
2023/01/11 13:04:23;;;;;;;21.03;3.53;;;;;;;;;;5067523;28;20040;-63
2023/01/11 13:07:05;;;;;;;20.53;3.67;;;;;;;;;;5067469;28;20044;-63
2023/01/11 13:09:38;;;;;;;16.03;3.20;;;;;;;;;;5064710;28;20045;-64
2023/01/11 13:12:10;;;;;;;13.18;3.05;;;;;;;;;;5067175;28;20129;-63
2023/01/11 13:14:38;;;;;;;19.60;3.60;;;;;;;;;;5051739;28;20047;-63
2023/01/11 13:17:15;;;;;;;21.23;3.30;;;;;;;;;;5065955;28;20433;-64
2023/01/11 13:19:50;;;;;;;20.23;3.73;;;;;;;;;;5061063;28;20036;-63
2023/01/11 13:22:18;;;;;;;28.53;3.63;;;;;;;;;;5066832;28;20138;-64
2023/01/11 13:24:46;;;;;;;16.77;3.37;;;;;;;;;;5066107;28;20505;-63
2023/01/11 13:27:14;;;;;;;16.57;4.30;;;;;;;;;;5068327;28;20166;-63
2023/01/11 13:29:42;;;;;;;19.80;3.77;;;;;;;;;;5064599;28;20071;-63
2023/01/11 13:32:12;;;;;;;24.80;3.93;;;;;;;;;;5068503;28;20051;-63
2023/01/11 13:34:41;;;;;;;16.37;3.23;;;;;;;;;;5065431;28;20048;-63
2023/01/11 13:37:13;;;;;;;18.10;3.80;;;;;;;;;;5067809;28;20041;-63
2023/01/11 13:39:57;;;;;;;20.40;3.27;;;;;;;;;;5066673;28;20503;-63
2023/01/11 13:42:24;;;;;;;23.98;3.90;;;;;;;;;;5066193;28;20067;-63
2023/01/11 13:44:54;;;;;;;23.63;3.30;;;;;;;;;;5065191;28;20118;-63
2023/01/11 13:47:31;;;;;;;18.63;3.43;;;;;;;;;;5065928;28;20049;-64
2023/01/11 13:49:59;;;;;;;15.40;2.83;;;;;;;;;;5066695;28;20045;-63
2023/01/11 13:52:25;;;;;;;23.07;3.40;;;;;;;;;;5057967;28;20477;-63
2023/01/11 13:54:58;;;;;;;19.73;3.23;;;;;;;;;;5067111;28;20131;-63
2023/01/11 13:57:29;;;;;;;18.83;2.93;;;;;;;;;;5064539;28;20045;-63
2023/01/11 14:00:00;;;;;;;24.67;5.57;;;;;;;;;;5064575;28;20295;-63
2023/01/11 14:02:26;;;;;;;14.20;3.17;;;;;;;;;;5047811;28;20065;-63
2023/01/11 14:04:52;;;;;;;14.00;3.00;;;;;;;;;;5060758;28;20127;-63
2023/01/11 14:07:34;;;;;;;17.83;3.83;;;;;;;;;;5065867;28;20076;-63
2023/01/11 14:10:09;;;;;;;18.27;3.17;;;;;;;;;;5060541;28;20551;-63
2023/01/11 14:12:48;;;;;;;20.33;3.20;;;;;;;;;;5066782;28;20056;-63
2023/01/11 14:15:13;;;;;;;15.60;3.10;;;;;;;;;;5067809;28;20102;-63
2023/01/11 14:17:58;;;;;;;21.23;3.10;;;;;;;;;;5066870;28;20048;-63
2023/01/11 14:20:32;;;;;;;28.83;3.50;;;;;;;;;;5063084;28;20107;-63
2023/01/11 14:23:11;;;;;;;22.80;3.22;;;;;;;;;;5065646;28;20566;-63
2023/01/11 14:26:09;;;;;;;21.67;4.17;;;;;;;;;;5067166;28;20067;-63
2023/01/11 14:28:41;;;;;;;19.23;3.00;;;;;;;;;;5038909;28;20053;-63
2023/01/11 14:31:10;;;;;;;15.20;2.50;;;;;;;;;;5066884;28;20048;-63
2023/01/11 14:33:56;;;;;;;20.17;3.97;;;;;;;;;;5052183;28;20131;-63
2023/01/11 14:36:31;;;;;;;11.73;2.93;;;;;;;;;;5062763;28;20408;-63
2023/01/11 14:38:57;;;;;;;20.47;3.30;;;;;;;;;;5053801;28;20106;-63
2023/01/11 14:41:55;;;;;;;19.93;3.77;;;;;;;;;;5063565;28;20467;-63
2023/01/11 14:44:39;;;;;;;18.33;4.00;;;;;;;;;;5021352;28;20055;-63
2023/01/11 14:47:32;;;;;;;17.73;4.53;;;;;;;;;;5063664;28;20093;-63
2023/01/11 14:50:12;;;;;;;21.67;3.03;;;;;;;;;;5061432;28;20056;-62
2023/01/11 14:52:38;;;;;;;19.20;3.13;;;;;;;;;;5067787;28;20037;-63
2023/01/11 14:55:16;;;;;;;22.93;3.93;;;;;;;;;;5053616;28;20028;-62
2023/01/11 14:57:43;;;;;;;27.83;4.13;;;;;;;;;;5069719;28;20044;-62
2023/01/11 15:00:18;;;;;;;21.07;3.60;;;;;;;;;;5068302;28;20049;-62
2023/01/11 15:02:44;;;;;;;22.53;3.50;;;;;;;;;;5068754;28;20415;-62
2023/01/11 15:05:26;;;;;;;17.63;3.43;;;;;;;;;;5064047;28;20158;-62
2023/01/11 15:07:52;;;;;;;23.90;4.00;;;;;;;;;;5059326;28;20041;-62
2023/01/11 15:10:27;;;;;;;21.43;3.83;;;;;;;;;;5057402;28;20091;-62